Surface observations / UK / EGOM

Quebec | Canada | USA | France | UK | Europe | Elsewhere

Display: Info & Location for EGOM | Help decoding METAR


Raw surface observations for station EGOM
EGOM 260350Z AUTO 23028KT 9999 SCT016/// SCT023/// BKN033/// 10/08 Q1008 RERA=
EGOM 260250Z AUTO 24027G39KT 9999 FEW020/// BKN033/// 11/07 Q1008 RERA=
EGOM 260150Z AUTO 24023G35KT 9999 SCT019/// BKN041/// 11/08 Q1008=
EGOM 260050Z AUTO 24026G36KT 9999 FEW016/// BKN038/// 10/07 Q1008=
EGOM 252350Z AUTO 24021KT 9999 SCT015/// BKN043/// 09/08 Q1008 RERA=
EGOM 252250Z AUTO 24027G40KT 9999 FEW019/// BKN048/// 10/07 Q1008 RERA=
EGOM 252150Z AUTO 24025KT 9999 FEW017/// BKN048/// 10/08 Q1008=
EGOM 252050Z AUTO 24028KT 9999 BKN046/// 10/07 Q1008 RERA=
EGOM 251950Z AUTO 24027G38KT 9999 -RADZ FEW019/// BKN050/// 10/08 Q1008=
EGOM 251850Z AUTO 24026G37KT 9999 FEW020/// BKN046/// 10/07 Q1008=
EGOM 251750Z AUTO 24021KT 9999 FEW020/// BKN050/// 10/07 Q1008=
EGOM 251650Z AUTO 23026G36KT 9999 FEW029/// BKN048/// 10/07 Q1007 RERA=
EGOM 251550Z AUTO 24025KT 9999 SCT017/// BKN050/// 10/08 Q1008=
EGOM 251450Z AUTO 24025G35KT 9999 SCT017/// BKN024/// BKN060/// 11/08 Q1007 RERA=
EGOM 251350Z AUTO 24024G36KT 9999 BKN018/// SCT030/// BKN050/// 11/08 Q1008=
EGOM 251250Z AUTO 23023KT 9999 BKN009/// SCT021/// 10/08 Q1008=
EGOM 251150Z AUTO 24024G37KT 9999 SCT012/// BKN048/// 11/08 Q1008=
EGOM 251050Z AUTO 23026KT 9999 BKN011/// BKN021/// 11/08 Q1007=
EGOM 250950Z AUTO 23020KT 9999 BKN009/// BKN019/// 10/08 Q1007=
EGOM 250850Z AUTO 23020KT 9999 SCT016/// BKN036/// 09/08 Q1008=
EGOM 250750Z AUTO 23020KT 9999 FEW007/// SCT014/// BKN046/// 09/08 Q1008 RERA=
EGOM 250650Z AUTO 23017KT 9999 -SHRA FEW023/// SCT034/// BKN045/// 09/08 Q1007=
EGOM 250550Z AUTO 22017KT 9999 BKN043/// 09/07 Q1007=
EGOM 250450Z AUTO 23018KT 9999 FEW036/// BKN043/// 09/08 Q1007=
EGOM 250350Z AUTO 23012KT 9999 FEW017/// BKN046/// 08/07 Q1008=